Time;durP1;ratioP1;P1;durP2;ratioP2;P2;SDS_P1;SDS_P2;PMS_P1;PMS_P2;Temp;Humidity;BMP_temperature;BMP_pressure;BME280_temperature;BME280_humidity;BME280_pressure;Samples;Min_cycle;Max_cycle;Signal;HPM_P1;HPM_P2
2022/09/16 00:00:52;;;;;;;3.33;3.13;;;;;;;16.96;78.51;98121.47;5030273;27;103886;-65
2022/09/16 00:03:20;;;;;;;3.42;3.13;;;;;;;16.98;77.58;98120.31;5026664;27;103869;-65
2022/09/16 00:05:51;;;;;;;4.25;3.70;;;;;;;16.99;77.98;98115.81;5028536;27;103408;-65
2022/09/16 00:08:20;;;;;;;3.60;3.30;;;;;;;17.09;77.62;98106.69;5030384;27;102747;-65
2022/09/16 00:10:47;;;;;;;3.80;3.50;;;;;;;17.12;77.47;98122.31;5036727;27;103108;-64
2022/09/16 00:13:18;;;;;;;4.18;3.78;;;;;;;17.12;78.15;98108.19;5031933;27;103199;-65
2022/09/16 00:15:49;;;;;;;3.05;2.75;;;;;;;17.17;77.83;98113.84;5035587;27;103368;-65
2022/09/16 00:18:19;;;;;;;3.70;3.40;;;;;;;17.11;78.08;98111.84;5039798;27;103172;-65
2022/09/16 00:20:49;;;;;;;3.75;3.30;;;;;;;17.16;77.44;98115.66;5042716;27;102684;-65
2022/09/16 00:23:18;;;;;;;3.70;3.40;;;;;;;17.25;76.93;98116.50;5043944;27;103349;-65
2022/09/16 00:25:52;;;;;;;3.75;3.45;;;;;;;17.22;77.24;98116.84;5038772;27;104287;-65
2022/09/16 00:28:20;;;;;;;3.90;3.40;;;;;;;17.07;77.61;98108.66;5034095;27;102719;-65
2022/09/16 00:30:51;;;;;;;3.80;3.40;;;;;;;17.18;77.25;98107.47;5040956;27;102635;-65
2022/09/16 00:33:20;;;;;;;3.20;3.00;;;;;;;17.23;77.13;98118.53;5035643;27;103810;-65
2022/09/16 00:35:50;;;;;;;5.95;3.78;;;;;;;17.15;77.30;98118.53;5036912;27;104444;-65
2022/09/16 00:38:17;;;;;;;3.33;3.05;;;;;;;17.18;77.95;98119.00;5038436;27;104566;-66
2022/09/16 00:40:47;;;;;;;4.03;3.63;;;;;;;17.19;77.38;98111.84;5038367;27;104247;-65
2022/09/16 00:43:18;;;;;;;3.53;3.22;;;;;;;17.17;77.57;98120.03;5030202;27;103900;-65
2022/09/16 00:45:54;;;;;;;4.25;3.75;;;;;;;17.17;77.25;98111.19;5040678;27;103289;-65
2022/09/16 00:48:27;;;;;;;3.00;2.70;;;;;;;17.24;77.60;98104.16;5037138;27;102715;-65
2022/09/16 00:51:00;;;;;;;3.55;3.25;;;;;;;17.20;77.84;98118.84;5033276;27;103578;-65
2022/09/16 00:53:31;;;;;;;3.50;3.20;;;;;;;17.23;77.70;98114.03;5039773;27;104473;-65
2022/09/16 00:56:03;;;;;;;4.47;4.10;;;;;;;17.09;77.82;98111.16;5027628;27;103424;-65
2022/09/16 00:58:38;;;;;;;3.80;3.40;;;;;;;17.26;77.21;98108.31;5035151;27;103662;-65
2022/09/16 01:01:07;;;;;;;4.90;3.92;;;;;;;17.35;77.11;98119.84;5032811;27;102707;-65
2022/09/16 01:03:40;;;;;;;3.88;3.58;;;;;;;17.37;77.11;98120.53;5036653;27;104072;-65
2022/09/16 01:06:10;;;;;;;4.88;4.18;;;;;;;17.35;77.15;98112.66;5034348;27;103132;-65
2022/09/16 01:08:38;;;;;;;4.18;3.65;;;;;;;17.20;77.50;98126.84;5038551;27;102637;-65
2022/09/16 01:11:08;;;;;;;3.90;3.60;;;;;;;17.32;77.25;98122.84;5039572;27;105232;-65
2022/09/16 01:13:37;;;;;;;4.85;4.18;;;;;;;17.23;76.90;98129.19;5032816;27;104522;-65
2022/09/16 01:16:08;;;;;;;3.33;3.03;;;;;;;17.32;77.03;98125.50;5041738;27;103228;-65
2022/09/16 01:18:43;;;;;;;3.72;3.42;;;;;;;17.22;77.26;98116.84;5037601;27;104409;-65
2022/09/16 01:21:26;;;;;;;4.57;4.18;;;;;;;17.03;77.45;98122.50;5036354;27;103209;-65
2022/09/16 01:24:18;;;;;;;6.13;4.32;;;;;;;16.77;78.52;98118.13;5038200;27;104009;-65
2022/09/16 01:27:09;;;;;;;5.35;4.85;;;;;;;16.85;79.25;98109.28;5036598;27;103314;-65
2022/09/16 01:30:06;;;;;;;5.70;4.60;;;;;;;16.97;78.88;98115.16;5035383;27;103066;-65
2022/09/16 01:32:46;;;;;;;4.93;4.53;;;;;;;16.79;78.95;98121.47;5035654;27;102744;-65
2022/09/16 01:35:22;;;;;;;3.90;3.50;;;;;;;17.00;78.19;98115.66;5033093;27;103901;-65
2022/09/16 01:38:01;;;;;;;4.65;4.25;;;;;;;16.97;78.23;98117.81;5039815;27;103186;-64
2022/09/16 01:40:35;;;;;;;3.83;3.47;;;;;;;16.99;78.26;98116.66;5038215;27;102807;-65
2022/09/16 01:43:09;;;;;;;3.80;3.47;;;;;;;17.10;77.95;98110.16;5034271;27;104739;-65
2022/09/16 01:45:44;;;;;;;4.15;3.75;;;;;;;17.03;77.45;98117.16;5038380;27;103797;-65
2022/09/16 01:48:24;;;;;;;4.77;4.37;;;;;;;16.91;77.67;98118.47;5036375;27;103491;-65
2022/09/16 01:50:59;;;;;;;4.78;4.28;;;;;;;16.89;78.06;98118.66;5039062;27;103359;-65
2022/09/16 01:53:32;;;;;;;5.35;3.60;;;;;;;16.97;77.50;98109.81;5039366;27;102944;-65
2022/09/16 01:56:05;;;;;;;5.30;4.28;;;;;;;16.80;76.75;98117.81;5033278;27;104283;-65
2022/09/16 01:58:41;;;;;;;4.93;4.15;;;;;;;16.68;77.60;98112.91;5036990;27;103313;-66
2022/09/16 02:01:14;;;;;;;4.43;3.58;;;;;;;16.33;77.79;98118.44;5028613;27;102847;-65
2022/09/16 02:03:50;;;;;;;3.58;3.13;;;;;;;16.50;77.84;98115.69;5030552;27;104092;-65
2022/09/16 02:06:22;;;;;;;3.23;2.93;;;;;;;16.68;75.90;98113.75;5038611;27;103081;-65
2022/09/16 02:08:55;;;;;;;3.90;3.50;;;;;;;16.64;76.02;98112.44;5037294;27;103718;-65
2022/09/16 02:11:24;;;;;;;3.83;2.90;;;;;;;16.63;75.81;98116.09;5038523;27;103058;-65
2022/09/16 02:13:59;;;;;;;3.22;2.92;;;;;;;16.66;75.76;98110.44;5037972;27;104667;-65
2022/09/16 02:16:32;;;;;;;2.55;2.35;;;;;;;16.63;75.86;98102.75;5040920;27;103361;-65
2022/09/16 02:19:10;;;;;;;3.85;3.50;;;;;;;16.37;76.25;98099.31;5039062;27;103238;-65
2022/09/16 02:21:41;;;;;;;3.28;2.63;;;;;;;16.51;75.06;98101.34;5030693;27;102692;-65
2022/09/16 02:24:17;;;;;;;2.90;2.70;;;;;;;16.67;75.21;98101.41;5037021;27;102716;-65
2022/09/16 02:26:47;;;;;;;2.75;2.55;;;;;;;16.73;75.57;98110.59;5038183;27;103963;-65
2022/09/16 02:29:20;;;;;;;3.08;2.53;;;;;;;16.75;75.42;98109.47;5033826;27;104904;-65
2022/09/16 02:31:52;;;;;;;2.50;2.30;;;;;;;16.77;75.63;98106.63;5038688;27;103767;-65
2022/09/16 02:34:28;;;;;;;2.90;2.63;;;;;;;16.69;75.88;98112.78;5033249;27;103973;-65
2022/09/16 02:37:01;;;;;;;2.30;2.10;;;;;;;16.74;75.70;98102.44;5031898;27;103398;-65
2022/09/16 02:39:32;;;;;;;3.95;2.75;;;;;;;16.65;75.48;98107.91;5032439;27;103277;-65
2022/09/16 02:42:01;;;;;;;2.47;2.20;;;;;;;16.67;75.39;98117.41;5036251;27;102592;-65
2022/09/16 02:44:29;;;;;;;2.97;2.53;;;;;;;16.65;75.47;98113.25;5031786;27;105901;-65
2022/09/16 02:47:06;;;;;;;3.03;2.75;;;;;;;16.57;75.67;98110.56;5037580;27;103359;-65
2022/09/16 02:49:43;;;;;;;2.65;2.45;;;;;;;16.61;75.61;98117.25;5037927;27;105381;-66
2022/09/16 02:52:18;;;;;;;2.50;2.30;;;;;;;16.61;75.43;98111.91;5034791;27;102718;-65
2022/09/16 02:54:51;;;;;;;2.28;2.08;;;;;;;16.64;75.46;98107.09;5037067;27;103911;-66
2022/09/16 02:57:22;;;;;;;2.10;1.90;;;;;;;16.63;75.62;98105.44;5037293;27;104091;-65
2022/09/16 02:59:50;;;;;;;2.80;2.58;;;;;;;16.56;75.02;98109.72;5038294;27;103222;-65
2022/09/16 03:02:18;;;;;;;4.15;3.22;;;;;;;16.15;75.84;98110.53;5039122;27;105784;-65
2022/09/16 03:04:47;;;;;;;2.42;2.15;;;;;;;16.29;76.23;98112.59;5035713;27;103944;-65
2022/09/16 03:07:16;;;;;;;2.40;2.00;;;;;;;16.44;75.53;98110.16;5034235;27;104446;-66
2022/09/16 03:09:47;;;;;;;3.00;2.70;;;;;;;16.28;76.16;98110.91;5032692;27;103501;-65
2022/09/16 03:12:25;;;;;;;2.80;2.40;;;;;;;16.32;76.24;98112.28;5039988;27;102618;-65
2022/09/16 03:15:07;;;;;;;2.50;2.20;;;;;;;16.40;75.70;98114.97;5032622;27;102897;-65
2022/09/16 03:17:55;;;;;;;2.40;2.10;;;;;;;16.45;75.46;98102.00;5032024;27;103702;-65
2022/09/16 03:20:34;;;;;;;2.28;2.08;;;;;;;16.48;75.44;98101.66;5034908;27;103349;-65
2022/09/16 03:23:12;;;;;;;2.42;2.10;;;;;;;16.55;74.65;98108.06;5035163;27;102978;-65
2022/09/16 03:25:49;;;;;;;2.20;2.00;;;;;;;16.54;75.04;98102.88;5033746;27;104200;-66
2022/09/16 03:28:22;;;;;;;2.13;1.93;;;;;;;16.53;75.03;98104.72;5032920;27;103661;-65
2022/09/16 03:30:59;;;;;;;2.70;2.10;;;;;;;16.57;75.30;98105.22;5037646;27;104075;-65
2022/09/16 03:33:32;;;;;;;3.50;1.95;;;;;;;16.59;75.20;98104.06;5037972;27;102701;-65
2022/09/16 03:36:05;;;;;;;1.98;1.80;;;;;;;16.62;75.11;98098.41;5032403;27;105077;-66
2022/09/16 03:38:35;;;;;;;2.08;1.98;;;;;;;16.62;75.49;98097.56;5033235;27;103369;-65
2022/09/16 03:41:04;;;;;;;4.25;2.60;;;;;;;16.59;75.57;98100.59;5034584;27;104433;-65
2022/09/16 03:43:32;;;;;;;1.93;1.70;;;;;;;16.56;75.61;98099.06;5036576;27;102843;-65
2022/09/16 03:45:59;;;;;;;2.47;2.20;;;;;;;16.59;75.53;98097.94;5035437;27;103840;-66
2022/09/16 03:48:27;;;;;;;2.72;1.98;;;;;;;16.58;75.37;98102.41;5035607;27;103839;-66
2022/09/16 03:50:58;;;;;;;2.20;2.00;;;;;;;16.57;75.70;98095.41;5033652;27;103282;-65
2022/09/16 03:53:29;;;;;;;1.70;1.60;;;;;;;16.59;75.80;98093.41;5028716;27;104534;-65
2022/09/16 03:55:57;;;;;;;3.30;2.53;;;;;;;16.54;75.53;98090.41;5033536;27;104097;-65
2022/09/16 03:58:25;;;;;;;1.98;1.77;;;;;;;16.59;75.62;98093.41;5031160;27;103776;-65
2022/09/16 04:00:53;;;;;;;2.10;1.80;;;;;;;16.68;75.28;98096.91;5036273;27;104672;-65
2022/09/16 04:03:21;;;;;;;2.95;2.47;;;;;;;16.65;75.10;98098.09;5036849;27;103227;-65
2022/09/16 04:05:52;;;;;;;2.50;2.00;;;;;;;16.63;74.97;98094.75;5031881;27;102786;-66
2022/09/16 04:08:23;;;;;;;2.50;1.98;;;;;;;16.62;75.40;98092.25;5034740;27;103295;-66
2022/09/16 04:10:56;;;;;;;2.63;2.40;;;;;;;16.56;75.58;98088.38;5035781;27;103436;-66
2022/09/16 04:13:24;;;;;;;3.90;2.72;;;;;;;16.59;76.14;98087.25;5035886;27;102714;-66
2022/09/16 04:15:51;;;;;;;2.30;2.10;;;;;;;16.58;76.23;98083.75;5039038;27;103838;-65
2022/09/16 04:18:19;;;;;;;2.10;1.90;;;;;;;16.52;76.54;98087.03;5031149;27;103983;-66
2022/09/16 04:20:47;;;;;;;2.58;2.03;;;;;;;16.55;76.20;98086.75;5031636;27;103901;-65
2022/09/16 04:23:15;;;;;;;2.25;2.05;;;;;;;16.59;76.16;98082.72;5026384;27;102716;-65
2022/09/16 04:25:42;;;;;;;1.93;1.80;;;;;;;16.58;76.07;98081.09;5036057;27;104172;-65
2022/09/16 04:28:11;;;;;;;4.70;3.00;;;;;;;15.99;77.07;98073.19;5027065;27;103763;-65
2022/09/16 04:30:39;;;;;;;4.38;2.97;;;;;;;16.19;77.78;98074.59;5027367;27;103279;-64
2022/09/16 04:33:07;;;;;;;4.43;3.20;;;;;;;16.06;77.55;98076.84;5035778;27;103171;-65
2022/09/16 04:35:35;;;;;;;6.07;3.10;;;;;;;16.01;77.58;98077.34;5033780;27;102952;-65
2022/09/16 04:38:05;;;;;;;4.93;3.08;;;;;;;16.11;78.06;98072.72;5032739;27;103743;-65
2022/09/16 04:40:32;;;;;;;3.55;3.00;;;;;;;16.00;78.04;98080.19;5034542;27;103469;-65
2022/09/16 04:43:00;;;;;;;5.18;3.33;;;;;;;15.95;78.54;98077.13;5035239;27;102687;-65
2022/09/16 04:45:32;;;;;;;5.13;3.50;;;;;;;15.97;78.52;98077.84;5034711;27;104119;-65
2022/09/16 04:47:59;;;;;;;4.63;3.10;;;;;;;15.80;79.16;98078.75;5038313;27;104562;-65
2022/09/16 04:50:27;;;;;;;3.38;2.95;;;;;;;15.69;80.23;98076.34;5036367;27;103340;-65
2022/09/16 04:52:55;;;;;;;4.28;3.47;;;;;;;15.73;80.07;98072.38;5036125;27;102939;-65
2022/09/16 04:55:25;;;;;;;2.80;2.60;;;;;;;16.01;80.19;98079.16;5035934;27;103212;-65
2022/09/16 04:57:52;;;;;;;3.10;2.70;;;;;;;16.12;79.26;98086.88;5031817;27;104625;-65
2022/09/16 05:00:22;;;;;;;2.28;2.08;;;;;;;16.31;78.71;98089.28;5032578;27;103349;-67
2022/09/16 05:02:53;;;;;;;3.25;2.60;;;;;;;16.39;78.32;98086.66;5040013;27;102660;-66
2022/09/16 05:05:21;;;;;;;2.70;2.50;;;;;;;16.45;77.93;98090.53;5037542;27;103222;-66
2022/09/16 05:07:52;;;;;;;3.42;2.38;;;;;;;16.48;77.46;98096.34;5030163;27;103390;-66
2022/09/16 05:10:20;;;;;;;4.50;3.20;;;;;;;16.34;78.30;98099.63;5039366;27;103304;-66
2022/09/16 05:12:50;;;;;;;3.42;2.88;;;;;;;16.30;79.28;98092.97;5032336;27;103511;-66
2022/09/16 05:15:18;;;;;;;3.07;2.80;;;;;;;16.37;79.39;98101.97;5038590;27;103978;-66
2022/09/16 05:17:47;;;;;;;4.53;3.60;;;;;;;16.07;79.50;98091.84;5036865;27;105444;-67
2022/09/16 05:20:22;;;;;;;3.75;3.00;;;;;;;16.35;78.54;98085.31;5034556;27;103226;-66
2022/09/16 05:22:50;;;;;;;3.28;2.97;;;;;;;16.45;77.76;98082.53;5035805;27;102723;-67
2022/09/16 05:25:20;;;;;;;2.47;2.25;;;;;;;16.53;77.34;98080.72;5034710;27;102621;-68
2022/09/16 05:27:48;;;;;;;2.17;1.97;;;;;;;16.59;77.61;98082.72;5032489;27;103663;-66
2022/09/16 05:30:16;;;;;;;2.88;2.65;;;;;;;16.60;78.45;98084.41;5031344;27;106444;-70
2022/09/16 05:32:44;;;;;;;2.70;2.50;;;;;;;16.64;78.77;98085.78;5030372;27;103559;-69
2022/09/16 05:35:12;;;;;;;3.60;2.83;;;;;;;16.49;79.25;98082.03;5029904;27;103009;-68
2022/09/16 05:37:41;;;;;;;4.15;3.33;;;;;;;16.56;79.46;98079.59;5028632;27;103500;-68
2022/09/16 05:40:09;;;;;;;2.95;2.72;;;;;;;16.51;79.91;98087.19;5028366;27;102882;-68
2022/09/16 05:42:37;;;;;;;3.03;2.72;;;;;;;16.53;80.07;98090.53;5029905;27;102837;-68
2022/09/16 05:45:08;;;;;;;5.20;3.42;;;;;;;16.48;78.07;98085.69;5033493;27;103909;-68
2022/09/16 05:47:36;;;;;;;3.20;2.90;;;;;;;16.44;78.92;98089.69;5034075;27;103379;-69
2022/09/16 05:50:04;;;;;;;4.70;3.40;;;;;;;16.43;79.65;98093.31;5031793;27;103143;-67
2022/09/16 05:52:32;;;;;;;3.08;2.78;;;;;;;16.55;79.83;98096.56;5037660;27;102965;-68
2022/09/16 05:55:02;;;;;;;3.03;2.35;;;;;;;16.61;79.22;98107.44;5037344;27;103811;-68
2022/09/16 05:57:30;;;;;;;2.70;2.50;;;;;;;16.59;80.05;98104.06;5036044;27;103244;-68
2022/09/16 05:59:57;;;;;;;4.55;3.17;;;;;;;16.56;79.57;98096.38;5024731;27;103216;-68
2022/09/16 06:02:25;;;;;;;6.60;4.32;;;;;;;15.70;84.05;98108.13;5039658;27;102884;-68
2022/09/16 06:04:53;;;;;;;4.05;3.55;;;;;;;16.00;83.37;98110.28;5038554;27;103470;-67
2022/09/16 06:07:21;;;;;;;5.05;4.13;;;;;;;15.71;82.03;98099.16;5024628;27;104252;-67
2022/09/16 06:09:49;;;;;;;3.15;2.78;;;;;;;16.04;79.89;98108.16;5030163;27;103008;-67
2022/09/16 06:12:18;;;;;;;2.95;2.55;;;;;;;16.20;78.78;98109.06;5040703;27;102780;-67
2022/09/16 06:14:45;;;;;;;4.75;3.00;;;;;;;16.09;79.82;98106.69;5037294;27;102858;-67
2022/09/16 06:17:13;;;;;;;3.90;3.10;;;;;;;15.64;78.60;98106.94;5037157;27;103542;-67
2022/09/16 06:19:41;;;;;;;3.40;2.50;;;;;;;15.82;78.92;98106.03;5032711;27;104234;-66
2022/09/16 06:22:09;;;;;;;4.50;2.47;;;;;;;15.87;77.94;98109.06;5031908;27;102717;-66
2022/09/16 06:24:36;;;;;;;5.25;2.97;;;;;;;16.02;77.95;98104.81;5037439;27;102923;-67
2022/09/16 06:27:07;;;;;;;3.40;2.78;;;;;;;15.87;78.38;98111.72;5036938;27;104585;-66
2022/09/16 06:29:38;;;;;;;6.15;4.05;;;;;;;15.84;78.09;98107.56;5036340;27;103417;-67
2022/09/16 06:32:06;;;;;;;3.53;2.70;;;;;;;15.94;78.24;98108.28;5032316;27;102731;-66
2022/09/16 06:34:34;;;;;;;3.28;2.20;;;;;;;16.22;78.11;98108.91;5028405;27;102820;-66
2022/09/16 06:37:01;;;;;;;2.30;2.10;;;;;;;16.04;78.62;98113.50;5026982;27;103259;-67
2022/09/16 06:39:29;;;;;;;5.50;3.03;;;;;;;15.93;78.06;98111.09;5036071;27;104037;-67
2022/09/16 06:41:57;;;;;;;4.07;2.80;;;;;;;15.91;78.10;98107.78;5036413;27;104481;-66
2022/09/16 06:44:41;;;;;;;3.13;2.70;;;;;;;16.22;77.35;98122.25;5028225;27;103861;-67
2022/09/16 06:47:09;;;;;;;5.22;3.00;;;;;;;15.43;81.01;98119.75;5028899;27;104515;-66
2022/09/16 06:49:39;;;;;;;6.15;3.20;;;;;;;14.43;85.62;98116.44;5028596;27;104219;-66
2022/09/16 06:52:08;;;;;;;4.00;2.85;;;;;;;14.43;83.52;98124.41;5046844;27;102892;-66
2022/09/16 06:54:36;;;;;;;5.45;2.80;;;;;;;14.36;86.64;98128.66;5031591;27;104084;-66
2022/09/16 06:57:04;;;;;;;7.87;3.70;;;;;;;14.07;87.94;98127.94;5029153;27;104638;-66
2022/09/16 06:59:39;;;;;;;6.25;3.58;;;;;;;14.06;88.79;98131.59;5030659;27;103225;-66
2022/09/16 07:02:09;;;;;;;5.63;3.23;;;;;;;14.21;87.86;98127.44;5032068;27;103123;-66
2022/09/16 07:04:37;;;;;;;5.50;3.00;;;;;;;13.66;88.30;98133.66;5032189;27;103711;-68
2022/09/16 07:07:05;;;;;;;4.22;3.00;;;;;;;14.09;88.27;98141.88;5027943;27;103897;-69
2022/09/16 07:09:37;;;;;;;4.03;2.92;;;;;;;14.79;85.99;98135.13;5028118;27;103195;-65
2022/09/16 07:12:05;;;;;;;2.30;2.10;;;;;;;15.16;84.13;98127.81;5030992;27;103211;-65
2022/09/16 07:14:35;;;;;;;3.50;2.60;;;;;;;15.32;83.93;98135.97;5034432;27;103577;-66
2022/09/16 07:17:07;;;;;;;2.75;2.30;;;;;;;15.43;83.75;98135.72;5034004;27;103304;-66
2022/09/16 07:19:41;;;;;;;5.85;3.72;;;;;;;14.78;84.64;98139.59;5032886;27;103377;-66
2022/09/16 07:22:10;;;;;;;5.82;3.60;;;;;;;14.61;87.54;98129.78;5036771;27;102879;-66
2022/09/16 07:24:38;;;;;;;4.90;3.30;;;;;;;14.84;87.39;98127.53;5031551;27;104023;-66
2022/09/16 07:27:05;;;;;;;3.85;2.80;;;;;;;15.29;84.92;98133.59;5036681;27;103993;-65
2022/09/16 07:29:36;;;;;;;2.47;2.20;;;;;;;15.64;83.78;98140.72;5036163;27;103239;-66
2022/09/16 07:32:04;;;;;;;4.68;3.10;;;;;;;15.67;84.08;98140.41;5030882;27;102760;-66
2022/09/16 07:34:34;;;;;;;3.20;2.73;;;;;;;15.80;83.80;98148.00;5036506;27;103804;-66
2022/09/16 07:37:03;;;;;;;6.43;3.97;;;;;;;15.18;84.11;98144.47;5030378;27;103280;-66
2022/09/16 07:39:33;;;;;;;5.80;4.17;;;;;;;14.85;87.47;98143.31;5034129;27;103243;-66
2022/09/16 07:42:02;;;;;;;3.70;3.30;;;;;;;15.20;86.47;98137.19;5034407;27;102988;-66
2022/09/16 07:44:32;;;;;;;4.00;3.47;;;;;;;15.17;84.66;98134.81;5034676;27;103671;-66
2022/09/16 07:47:00;;;;;;;5.63;3.80;;;;;;;15.19;83.84;98143.47;5033108;27;104002;-67
2022/09/16 07:49:28;;;;;;;3.70;3.17;;;;;;;15.32;84.23;98149.25;5035261;27;103515;-66
2022/09/16 07:51:56;;;;;;;3.28;2.85;;;;;;;15.71;83.70;98152.41;5031543;27;102714;-67
2022/09/16 07:54:25;;;;;;;4.67;3.40;;;;;;;15.72;82.47;98147.94;5036500;27;103904;-66
2022/09/16 07:56:53;;;;;;;5.53;3.80;;;;;;;15.55;84.73;98139.81;5033317;27;104518;-66
2022/09/16 07:59:20;;;;;;;3.58;2.97;;;;;;;15.96;84.01;98143.59;5030520;27;103165;-67
2022/09/16 08:01:49;;;;;;;5.00;3.58;;;;;;;16.07;81.95;98145.16;5031614;27;103350;-66
2022/09/16 08:04:20;;;;;;;4.00;3.40;;;;;;;16.02;83.29;98142.13;5048741;27;103797;-66
2022/09/16 08:06:48;;;;;;;3.40;3.10;;;;;;;16.12;83.25;98137.50;5031855;27;103465;-66
2022/09/16 08:09:16;;;;;;;2.97;2.75;;;;;;;16.36;82.55;98148.31;5034985;27;103111;-67
2022/09/16 08:12:06;;;;;;;3.90;3.07;;;;;;;16.45;81.52;98149.16;5036196;27;102632;-66
2022/09/16 08:14:34;;;;;;;5.28;3.90;;;;;;;16.02;82.68;98147.44;5034994;27;104014;-67
2022/09/16 08:17:02;;;;;;;3.97;3.53;;;;;;;16.21;82.55;98147.22;5035316;27;103513;-66
2022/09/16 08:19:30;;;;;;;4.80;3.27;;;;;;;16.49;81.93;98162.00;5032661;27;103304;-67
2022/09/16 08:22:00;;;;;;;3.10;2.75;;;;;;;16.68;78.61;98159.09;5035941;27;102685;-67
2022/09/16 08:24:30;;;;;;;5.20;3.60;;;;;;;16.13;82.15;98163.16;5028343;27;102824;-66
2022/09/16 08:26:58;;;;;;;4.65;3.55;;;;;;;16.46;81.57;98167.66;5030967;27;103062;-66
2022/09/16 08:29:27;;;;;;;4.67;4.20;;;;;;;15.95;82.78;98173.88;5033028;27;105962;-66
2022/09/16 08:31:55;;;;;;;4.93;3.40;;;;;;;16.33;82.96;98172.59;5033185;27;103228;-67
2022/09/16 08:34:23;;;;;;;4.32;3.80;;;;;;;16.35;83.09;98167.09;5027458;27;103886;-67
2022/09/16 08:36:50;;;;;;;4.18;3.78;;;;;;;16.25;83.45;98172.56;5033066;27;103913;-67
2022/09/16 08:39:19;;;;;;;3.72;3.38;;;;;;;16.66;82.39;98166.44;5035337;27;103156;-67
2022/09/16 08:42:06;;;;;;;5.57;3.55;;;;;;;16.81;81.52;98170.13;5035625;27;102739;-67
2022/09/16 08:44:43;;;;;;;4.65;4.22;;;;;;;16.96;81.36;98170.34;5034665;27;103077;-67
2022/09/16 08:47:22;;;;;;;5.53;4.13;;;;;;;16.90;80.44;98167.50;5053094;27;103232;-67
2022/09/16 08:49:52;;;;;;;5.22;3.80;;;;;;;17.00;80.04;98168.19;5032895;27;103854;-67
2022/09/16 08:52:30;;;;;;;4.37;3.77;;;;;;;16.89;81.49;98181.84;5034451;27;102751;-67
2022/09/16 08:55:02;;;;;;;4.22;3.50;;;;;;;16.91;80.56;98182.50;5038901;27;102838;-67
2022/09/16 08:57:34;;;;;;;4.80;3.75;;;;;;;16.93;79.99;98175.16;5033444;27;103509;-67
2022/09/16 09:00:13;;;;;;;3.90;3.50;;;;;;;16.75;80.97;98176.16;5036184;27;103331;-67
2022/09/16 09:02:47;;;;;;;4.30;3.25;;;;;;;17.07;80.41;98172.69;5031904;27;103638;-67
2022/09/16 09:05:18;;;;;;;4.07;3.30;;;;;;;17.27;79.76;98176.75;5035547;27;103333;-67
2022/09/16 09:07:55;;;;;;;4.20;3.20;;;;;;;17.19;79.58;98181.22;5029851;27;103759;-67
2022/09/16 09:10:31;;;;;;;4.00;3.03;;;;;;;16.57;81.64;98179.88;5035323;27;103385;-68
2022/09/16 09:13:08;;;;;;;4.90;3.77;;;;;;;16.65;79.89;98180.75;5033446;27;102736;-66
2022/09/16 09:15:43;;;;;;;3.57;2.90;;;;;;;17.05;80.05;98180.03;5034980;27;102805;-67
2022/09/16 09:18:26;;;;;;;4.60;3.13;;;;;;;17.20;80.97;98177.56;5038417;27;103394;-67
2022/09/16 09:21:08;;;;;;;3.83;3.50;;;;;;;17.05;79.57;98179.22;5032648;27;103292;-66
2022/09/16 09:23:52;;;;;;;4.50;3.27;;;;;;;16.93;79.19;98170.66;5033855;27;103180;-67
2022/09/16 09:26:22;;;;;;;3.95;2.90;;;;;;;17.04;79.80;98165.03;5037097;27;103423;-67
2022/09/16 09:29:14;;;;;;;4.45;3.58;;;;;;;17.02;80.26;98168.84;5033339;27;103959;-67
2022/09/16 09:31:53;;;;;;;4.33;3.30;;;;;;;16.76;79.31;98161.78;5033695;27;103601;-68
2022/09/16 09:34:33;;;;;;;3.42;2.78;;;;;;;17.00;80.37;98162.84;5033808;27;102811;-67
2022/09/16 09:37:29;;;;;;;3.38;3.03;;;;;;;17.32;79.18;98160.22;5030633;27;103704;-67
2022/09/16 09:40:07;;;;;;;4.05;2.88;;;;;;;16.97;78.76;98163.19;5036283;27;104045;-67
2022/09/16 09:42:44;;;;;;;3.42;2.65;;;;;;;17.10;78.68;98171.53;5037877;27;103292;-67
2022/09/16 09:45:23;;;;;;;4.15;3.10;;;;;;;17.13;79.42;98174.72;5033903;27;103184;-67
2022/09/16 09:47:58;;;;;;;4.50;3.22;;;;;;;16.93;78.61;98165.34;5035270;27;103720;-67
2022/09/16 09:50:29;;;;;;;4.50;3.65;;;;;;;17.03;78.96;98166.03;5032437;27;104023;-67
2022/09/16 09:53:11;;;;;;;3.63;3.28;;;;;;;17.32;78.16;98168.22;5037227;27;103212;-67
2022/09/16 09:55:41;;;;;;;5.45;3.47;;;;;;;17.05;79.09;98176.53;5034580;27;102756;-67
2022/09/16 09:58:22;;;;;;;3.20;2.80;;;;;;;17.59;76.94;98167.94;5039095;27;104080;-67
2022/09/16 10:00:51;;;;;;;3.03;2.70;;;;;;;17.71;75.38;98174.59;5036341;27;103272;-67
2022/09/16 10:03:21;;;;;;;5.53;3.13;;;;;;;17.71;76.34;98171.94;5038013;27;103672;-67
2022/09/16 10:05:51;;;;;;;5.55;3.10;;;;;;;17.45;76.74;98175.75;5034881;27;102670;-67
2022/09/16 10:08:26;;;;;;;3.50;2.60;;;;;;;17.48;77.39;98170.94;5033298;27;102903;-67
2022/09/16 10:10:56;;;;;;;3.80;2.85;;;;;;;17.03;76.69;98171.38;5034393;27;104158;-67
2022/09/16 10:13:25;;;;;;;3.38;2.50;;;;;;;17.21;75.82;98168.53;5039503;27;103254;-67
2022/09/16 10:16:09;;;;;;;4.07;2.80;;;;;;;17.38;74.89;98165.72;5036102;27;102899;-67
2022/09/16 10:18:39;;;;;;;4.78;2.88;;;;;;;17.27;74.11;98173.22;5038150;27;103998;-67
2022/09/16 10:21:09;;;;;;;3.78;2.90;;;;;;;16.94;76.52;98168.84;5034349;27;104029;-67
2022/09/16 10:23:37;;;;;;;4.03;2.45;;;;;;;17.33;75.68;98169.91;5034891;27;103268;-67
2022/09/16 10:26:16;;;;;;;2.85;2.55;;;;;;;17.48;74.99;98172.75;5034288;27;102723;-67
2022/09/16 10:28:54;;;;;;;3.00;2.20;;;;;;;17.45;75.16;98171.25;5035887;27;103186;-67
2022/09/16 10:31:22;;;;;;;4.13;2.63;;;;;;;17.43;75.67;98161.75;5035076;27;103651;-67
2022/09/16 10:33:54;;;;;;;4.07;2.55;;;;;;;17.34;76.36;98166.25;5049038;27;103260;-67
2022/09/16 10:36:25;;;;;;;2.50;2.10;;;;;;;17.28;75.89;98169.56;5030371;27;102963;-67
2022/09/16 10:38:56;;;;;;;2.28;2.00;;;;;;;17.49;74.91;98166.44;5029929;27;103771;-67
2022/09/16 10:41:34;;;;;;;3.85;2.55;;;;;;;17.44;74.17;98166.91;5029504;27;104164;-69
2022/09/16 10:44:06;;;;;;;4.23;2.13;;;;;;;17.54;72.98;98158.78;5029037;27;103321;-69
2022/09/16 10:46:34;;;;;;;5.47;2.63;;;;;;;17.70;72.60;98162.28;5031641;27;102752;-69
2022/09/16 10:49:11;;;;;;;3.43;2.60;;;;;;;17.34;74.61;98152.91;5030919;27;103075;-69
2022/09/16 10:51:43;;;;;;;3.75;2.40;;;;;;;17.35;74.88;98155.38;5030578;27;104165;-69
2022/09/16 10:54:24;;;;;;;3.72;2.33;;;;;;;17.24;73.96;98162.88;5029112;27;104164;-68
2022/09/16 10:56:52;;;;;;;4.35;2.50;;;;;;;17.02;75.89;98166.19;5035520;27;102845;-68
2022/09/16 10:59:20;;;;;;;3.10;2.60;;;;;;;17.29;77.72;98172.06;5033161;27;102757;-68
2022/09/16 11:01:58;;;;;;;3.88;2.38;;;;;;;17.76;75.21;98172.28;5025961;27;104478;-68
2022/09/16 11:04:47;;;;;;;4.00;2.58;;;;;;;17.18;74.17;98180.38;5030609;27;105243;-68
2022/09/16 11:07:31;;;;;;;4.53;2.53;;;;;;;17.42;75.79;98176.09;5030580;27;103183;-69
2022/09/16 11:10:10;;;;;;;3.87;2.70;;;;;;;16.86;78.77;98179.50;5027441;27;104378;-69
2022/09/16 11:12:56;;;;;;;3.78;2.65;;;;;;;16.80;77.81;98179.16;5030323;27;104172;-69
2022/09/16 11:15:34;;;;;;;3.65;2.70;;;;;;;17.40;76.18;98178.94;5032345;27;103217;-68
2022/09/16 11:18:18;;;;;;;2.83;1.90;;;;;;;17.38;75.94;98173.75;5032463;27;102762;-70
2022/09/16 11:21:07;;;;;;;3.33;3.03;;;;;;;17.04;76.46;98174.88;5030678;27;104117;-69
2022/09/16 11:23:53;;;;;;;2.80;2.60;;;;;;;17.09;77.76;98185.91;5030934;27;103352;-70
2022/09/16 11:26:30;;;;;;;2.78;2.47;;;;;;;17.19;75.01;98186.56;5032504;27;103191;-68
2022/09/16 11:29:33;;;;;;;3.78;2.97;;;;;;;16.73;77.05;98195.94;5031072;27;102845;-68
2022/09/16 11:32:12;;;;;;;3.58;2.30;;;;;;;16.93;78.87;98185.84;5029631;27;103659;-68
2022/09/16 11:34:54;;;;;;;3.85;3.10;;;;;;;16.93;76.17;98193.84;5034240;27;103830;-68
2022/09/16 11:37:28;;;;;;;4.03;2.53;;;;;;;17.29;74.11;98196.09;5030211;27;103223;-68
2022/09/16 11:40:20;;;;;;;5.13;2.40;;;;;;;17.12;74.47;98196.25;5032111;27;102727;-69
2022/09/16 11:42:56;;;;;;;5.03;2.60;;;;;;;16.85;74.23;98188.47;5029581;27;102698;-69
2022/09/16 11:45:44;;;;;;;3.15;2.35;;;;;;;16.83;75.77;98183.31;5033331;27;103414;-69
2022/09/16 11:48:36;;;;;;;3.38;2.20;;;;;;;17.33;73.92;98183.25;5030100;27;104350;-68